Time;durP1;ratioP1;P1;durP2;ratioP2;P2;SDS_P1;SDS_P2;PMS_P1;PMS_P2;Temp;Humidity;BMP_temperature;BMP_pressure;BME280_temperature;BME280_humidity;BME280_pressure;Samples;Min_cycle;Max_cycle;Signal;HPM_P1;HPM_P2
2022/08/07 00:00:08;;;;;;;0.22;0.22;;;15.70;62.40;;;;;;4859228;29;20049;-73
2022/08/07 00:02:33;;;;;;;0.30;0.30;;;15.70;62.60;;;;;;4859318;29;20477;-73
2022/08/07 00:04:59;;;;;;;0.35;0.30;;;15.70;62.70;;;;;;4858845;29;20096;-73
2022/08/07 00:07:25;;;;;;;0.20;0.20;;;15.70;62.80;;;;;;4859163;29;20042;-73
2022/08/07 00:09:51;;;;;;;0.28;0.28;;;15.70;62.80;;;;;;4858582;29;20058;-73
2022/08/07 00:12:17;;;;;;;0.28;0.28;;;15.70;62.80;;;;;;4858966;29;20033;-73
2022/08/07 00:14:42;;;;;;;0.20;0.20;;;15.60;62.90;;;;;;4859182;29;20101;-73
2022/08/07 00:17:08;;;;;;;0.20;0.20;;;15.60;62.90;;;;;;4859030;29;20405;-73
2022/08/07 00:19:34;;;;;;;0.30;0.30;;;15.60;63.00;;;;;;4859233;29;20045;-73
2022/08/07 00:22:00;;;;;;;0.30;0.30;;;15.60;63.00;;;;;;4858756;29;20049;-73
2022/08/07 00:24:26;;;;;;;0.30;0.30;;;15.60;63.00;;;;;;4842336;29;20053;-73
2022/08/07 00:26:51;;;;;;;0.28;0.20;;;15.50;63.10;;;;;;4858851;29;20073;-73
2022/08/07 00:29:18;;;;;;;0.30;0.30;;;15.50;63.20;;;;;;4859298;29;20076;-73
2022/08/07 00:31:44;;;;;;;0.20;0.20;;;15.50;63.30;;;;;;4842744;29;20102;-73
2022/08/07 00:34:10;;;;;;;0.40;0.40;;;15.40;63.40;;;;;;4858965;29;20045;-73
2022/08/07 00:36:37;;;;;;;0.32;0.30;;;15.40;63.50;;;;;;4858876;29;20045;-73
2022/08/07 00:39:03;;;;;;;0.30;0.30;;;15.40;63.60;;;;;;4841751;29;20425;-73
2022/08/07 00:41:32;;;;;;;0.20;0.20;;;15.30;63.60;;;;;;4858681;29;20087;-73
2022/08/07 00:43:58;;;;;;;0.65;0.40;;;15.30;63.80;;;;;;4858354;29;20064;-73
2022/08/07 00:46:25;;;;;;;0.20;0.20;;;15.30;63.90;;;;;;4858706;29;20397;-73
2022/08/07 00:48:50;;;;;;;0.30;0.30;;;15.20;63.90;;;;;;4825864;29;20049;-73
2022/08/07 00:51:16;;;;;;;0.43;0.30;;;15.20;64.00;;;;;;4858220;29;20037;-73
2022/08/07 00:53:42;;;;;;;0.20;0.20;;;15.10;64.00;;;;;;4861109;29;20052;-73
2022/08/07 00:56:11;;;;;;;0.28;0.28;;;15.10;64.20;;;;;;4861865;29;20338;-73
2022/08/07 00:58:40;;;;;;;0.28;0.28;;;15.00;64.30;;;;;;4845065;29;20481;-73
2022/08/07 01:01:05;;;;;;;0.45;0.45;;;15.00;64.50;;;;;;4861805;29;20037;-73
2022/08/07 01:03:31;;;;;;;0.40;0.40;;;14.90;64.60;;;;;;4861245;29;20420;-73
2022/08/07 01:05:57;;;;;;;0.40;0.40;;;14.80;64.70;;;;;;4860983;29;20561;-73
2022/08/07 01:08:23;;;;;;;0.30;0.30;;;14.80;64.80;;;;;;4861243;29;20039;-73
2022/08/07 01:10:49;;;;;;;0.28;0.28;;;14.80;64.90;;;;;;4844572;29;20451;-73
2022/08/07 01:13:15;;;;;;;0.40;0.40;;;14.70;65.00;;;;;;4861437;29;20099;-73
2022/08/07 01:15:42;;;;;;;0.50;0.32;;;14.70;65.10;;;;;;4843963;29;20382;-73
2022/08/07 01:18:07;;;;;;;0.30;0.30;;;14.60;65.20;;;;;;4861080;29;20584;-73
2022/08/07 01:20:40;;;;;;;0.30;0.30;;;14.70;65.30;;;;;;4860894;29;20073;-73
2022/08/07 01:23:06;;;;;;;0.40;0.30;;;14.60;65.40;;;;;;4860878;29;20037;-73
2022/08/07 01:25:33;;;;;;;0.43;0.43;;;14.50;65.40;;;;;;4860992;29;20061;-73
2022/08/07 01:27:58;;;;;;;0.30;0.30;;;14.50;65.60;;;;;;4860716;29;20041;-73
2022/08/07 01:30:26;;;;;;;0.50;0.50;;;14.50;65.60;;;;;;4860799;29;20056;-73
2022/08/07 01:32:51;;;;;;;0.38;0.38;;;14.50;65.70;;;;;;4844828;29;20068;-73
2022/08/07 01:35:18;;;;;;;0.40;0.40;;;14.40;65.70;;;;;;4828632;29;20065;-73
2022/08/07 01:37:44;;;;;;;0.40;0.40;;;14.40;65.90;;;;;;4843870;29;20034;-73
2022/08/07 01:40:11;;;;;;;0.40;0.40;;;14.30;65.90;;;;;;4860729;29;20045;-73
2022/08/07 01:42:37;;;;;;;0.30;0.30;;;14.30;66.00;;;;;;4860810;29;20042;-73
2022/08/07 01:45:05;;;;;;;0.40;0.40;;;14.30;66.10;;;;;;4860550;29;20143;-73
2022/08/07 01:47:31;;;;;;;0.40;0.40;;;14.20;66.20;;;;;;4861092;29;20144;-73
2022/08/07 01:49:57;;;;;;;0.47;0.47;;;14.20;66.20;;;;;;4860496;29;20537;-73
2022/08/07 01:52:28;;;;;;;0.50;0.50;;;14.20;66.30;;;;;;4860814;29;20400;-73
2022/08/07 01:54:55;;;;;;;0.47;0.47;;;14.10;66.40;;;;;;4860480;29;20042;-73
2022/08/07 01:57:25;;;;;;;0.40;0.40;;;14.20;66.50;;;;;;4860495;29;20125;-73
2022/08/07 01:59:59;;;;;;;0.40;0.40;;;14.10;66.50;;;;;;4860458;29;20068;-73
2022/08/07 02:02:32;;;;;;;0.40;0.25;;;14.00;66.50;;;;;;4860081;29;20056;-73
2022/08/07 02:05:04;;;;;;;0.47;0.47;;;14.00;66.70;;;;;;4860303;29;20045;-73
2022/08/07 02:07:35;;;;;;;0.40;0.40;;;14.00;66.80;;;;;;4860139;29;20050;-73
2022/08/07 02:10:04;;;;;;;0.40;0.40;;;14.00;66.80;;;;;;4844603;29;20477;-73
2022/08/07 02:12:35;;;;;;;0.52;0.38;;;14.00;66.90;;;;;;4858618;29;20481;-73
2022/08/07 02:15:02;;;;;;;0.40;0.40;;;13.90;67.00;;;;;;4857892;29;20074;-73
2022/08/07 02:17:28;;;;;;;0.40;0.40;;;14.00;67.10;;;;;;4843750;29;20045;-73
2022/08/07 02:19:56;;;;;;;0.32;0.32;;;13.90;67.10;;;;;;4860198;29;20033;-73
2022/08/07 02:22:24;;;;;;;0.45;0.45;;;13.90;67.20;;;;;;4860129;29;20088;-73
2022/08/07 02:24:57;;;;;;;0.40;0.40;;;13.80;67.20;;;;;;4860096;29;20173;-74
2022/08/07 02:27:25;;;;;;;0.55;0.50;;;13.80;67.30;;;;;;4859957;29;20120;-73
2022/08/07 02:29:53;;;;;;;0.40;0.40;;;13.80;67.30;;;;;;4859688;29;20093;-73
2022/08/07 02:32:19;;;;;;;0.40;0.40;;;13.80;67.30;;;;;;4843849;29;20034;-73
2022/08/07 02:34:47;;;;;;;0.50;0.50;;;13.80;67.40;;;;;;4859840;29;20041;-73
2022/08/07 02:37:14;;;;;;;0.73;0.40;;;13.70;67.50;;;;;;4843798;29;20070;-73
2022/08/07 02:39:43;;;;;;;0.40;0.40;;;13.70;67.60;;;;;;4859784;29;20758;-73
2022/08/07 02:42:10;;;;;;;0.32;0.32;;;13.70;67.60;;;;;;4859717;29;20052;-73
2022/08/07 02:44:38;;;;;;;0.30;0.30;;;13.70;67.70;;;;;;4842930;29;20103;-74
2022/08/07 02:47:05;;;;;;;0.60;0.43;;;13.70;67.70;;;;;;4859834;29;20045;-73
2022/08/07 02:49:31;;;;;;;0.47;0.47;;;13.60;67.80;;;;;;4859932;29;20053;-73
2022/08/07 02:52:00;;;;;;;0.50;0.50;;;13.60;67.90;;;;;;4859839;29;20509;-73
2022/08/07 02:54:29;;;;;;;0.57;0.50;;;13.60;67.90;;;;;;4859540;29;20511;-73
2022/08/07 02:56:59;;;;;;;0.40;0.40;;;13.70;68.10;;;;;;4859455;29;20181;-73
2022/08/07 02:59:26;;;;;;;0.60;0.60;;;13.60;68.10;;;;;;4859624;29;20056;-73
2022/08/07 03:01:53;;;;;;;0.50;0.50;;;13.60;68.10;;;;;;4859923;29;20045;-73
2022/08/07 03:04:20;;;;;;;0.52;0.43;;;13.50;68.20;;;;;;4860088;29;20084;-73
2022/08/07 03:06:47;;;;;;;0.43;0.43;;;13.40;68.20;;;;;;4859613;29;20049;-73
2022/08/07 03:09:14;;;;;;;0.35;0.28;;;13.50;68.30;;;;;;4842206;29;20057;-73
2022/08/07 03:11:41;;;;;;;0.85;0.50;;;13.40;68.30;;;;;;4859543;29;20072;-73
2022/08/07 03:14:07;;;;;;;0.47;0.47;;;13.40;68.40;;;;;;4859502;29;20068;-73
2022/08/07 03:16:34;;;;;;;0.30;0.30;;;13.40;68.40;;;;;;4858780;29;20105;-73
2022/08/07 03:19:00;;;;;;;0.50;0.50;;;13.40;68.60;;;;;;4859075;29;20037;-73
2022/08/07 03:21:27;;;;;;;0.45;0.45;;;13.40;68.60;;;;;;4859493;29;20052;-73
2022/08/07 03:23:55;;;;;;;0.28;0.28;;;13.30;68.60;;;;;;4859328;29;20045;-73
2022/08/07 03:26:24;;;;;;;0.47;0.40;;;13.30;68.70;;;;;;4858192;29;20045;-73
2022/08/07 03:28:51;;;;;;;0.50;0.50;;;13.40;68.80;;;;;;4856382;29;20397;-73
2022/08/07 03:31:19;;;;;;;0.40;0.40;;;13.30;68.80;;;;;;4843210;29;20039;-73
2022/08/07 03:33:49;;;;;;;0.55;0.52;;;13.30;68.80;;;;;;4842333;29;20572;-73
2022/08/07 03:36:17;;;;;;;0.60;0.60;;;13.40;68.70;;;;;;4859285;29;20053;-73
2022/08/07 03:38:45;;;;;;;0.60;0.60;;;13.40;68.70;;;;;;4859310;29;20058;-73
2022/08/07 03:41:12;;;;;;;0.80;0.63;;;13.40;68.70;;;;;;4858884;29;20053;-73
2022/08/07 03:43:39;;;;;;;0.73;0.60;;;13.40;68.70;;;;;;4859002;29;20049;-73
2022/08/07 03:46:06;;;;;;;0.52;0.45;;;13.40;68.70;;;;;;4842624;29;20048;-73
2022/08/07 03:48:33;;;;;;;0.68;0.57;;;13.30;68.70;;;;;;4859443;29;20462;-73
2022/08/07 03:51:01;;;;;;;0.63;0.50;;;13.30;68.80;;;;;;4858735;29;20045;-73
2022/08/07 03:53:27;;;;;;;0.43;0.43;;;13.30;68.80;;;;;;4842730;29;20068;-73
2022/08/07 03:55:56;;;;;;;0.57;0.57;;;13.30;68.80;;;;;;4858988;29;20493;-73
2022/08/07 03:58:23;;;;;;;0.50;0.45;;;13.30;68.90;;;;;;4827061;29;20082;-73
2022/08/07 04:00:51;;;;;;;0.73;0.50;;;13.30;69.00;;;;;;4842034;29;20041;-73
2022/08/07 04:03:17;;;;;;;0.47;0.45;;;13.20;69.00;;;;;;4842255;29;20049;-73
2022/08/07 04:05:43;;;;;;;0.40;0.40;;;13.20;69.00;;;;;;4858829;29;20497;-73
2022/08/07 04:08:11;;;;;;;0.50;0.50;;;13.30;69.20;;;;;;4842622;29;20084;-73
2022/08/07 04:10:39;;;;;;;0.50;0.50;;;13.20;69.20;;;;;;4842308;29;20045;-73
2022/08/07 04:13:06;;;;;;;0.40;0.40;;;13.20;69.20;;;;;;4858775;29;20073;-73
2022/08/07 04:15:33;;;;;;;0.47;0.43;;;13.10;69.20;;;;;;4859175;29;20069;-73
2022/08/07 04:18:00;;;;;;;0.40;0.40;;;13.10;69.30;;;;;;4858892;29;20093;-74
2022/08/07 04:20:27;;;;;;;0.63;0.50;;;13.10;69.30;;;;;;4842605;29;20560;-73
2022/08/07 04:22:53;;;;;;;0.30;0.30;;;13.20;69.50;;;;;;4858970;29;20485;-73
2022/08/07 04:25:22;;;;;;;0.38;0.38;;;13.10;69.50;;;;;;4859456;29;20069;-73
2022/08/07 04:27:47;;;;;;;0.40;0.40;;;13.10;69.50;;;;;;4843496;29;20118;-73
2022/08/07 04:30:13;;;;;;;0.70;0.52;;;13.00;69.50;;;;;;4862042;29;20045;-73
2022/08/07 04:32:40;;;;;;;0.73;0.55;;;13.10;69.60;;;;;;4862118;29;20045;-73
2022/08/07 04:35:06;;;;;;;1.17;0.60;;;13.10;69.70;;;;;;4861810;29;20668;-73
2022/08/07 04:37:34;;;;;;;0.60;0.60;;;13.10;69.70;;;;;;4845451;29;20037;-73
2022/08/07 04:40:00;;;;;;;0.50;0.50;;;13.00;69.70;;;;;;4861964;29;20072;-73
2022/08/07 04:42:29;;;;;;;0.60;0.60;;;13.00;69.70;;;;;;4861746;29;20061;-73
2022/08/07 04:44:57;;;;;;;0.60;0.60;;;13.00;69.70;;;;;;4862462;29;20069;-73
2022/08/07 04:47:37;;;;;;;0.57;0.55;;;13.10;69.90;;;;;;4845327;29;20389;-73
2022/08/07 04:50:11;;;;;;;0.60;0.55;;;13.00;69.90;;;;;;4861602;29;20054;-73
2022/08/07 04:52:52;;;;;;;1.02;0.65;;;13.10;70.00;;;;;;4861665;29;20044;-73
2022/08/07 04:55:22;;;;;;;;;;;13.00;69.90;;;;;;4845868;29;20499;-73
2022/08/07 04:58:18;;;;;;;0.40;0.40;;;13.10;69.80;;;;;;4861911;29;19908;-73
2022/08/07 05:00:54;;;;;;;0.47;0.40;;;13.10;69.80;;;;;;4848219;29;20512;-73
2022/08/07 05:03:41;;;;;;;0.32;0.32;;;13.10;69.70;;;;;;4861845;29;20036;-73
2022/08/07 05:06:15;;;;;;;0.43;0.40;;;13.10;69.80;;;;;;4861794;29;20040;-73
2022/08/07 05:08:50;;;;;;;0.52;0.45;;;13.10;69.80;;;;;;4862083;29;20042;-73
2022/08/07 05:11:23;;;;;;;0.95;0.70;;;13.10;69.90;;;;;;4861645;29;20434;-73
2022/08/07 05:14:05;;;;;;;0.77;0.40;;;13.10;69.90;;;;;;4861588;29;20113;-73
2022/08/07 05:16:31;;;;;;;;;;;13.10;69.90;;;;;;4862500;29;20048;-73
2022/08/07 05:19:02;;;;;;;0.45;0.43;;;13.30;69.80;;;;;;4860165;29;19968;-73
2022/08/07 05:21:29;;;;;;;0.30;0.30;;;13.20;69.60;;;;;;4844773;29;20053;-73
2022/08/07 05:24:00;;;;;;;0.98;0.50;;;13.30;69.70;;;;;;4861747;29;20058;-73
2022/08/07 05:26:30;;;;;;;0.60;0.57;;;13.30;69.70;;;;;;4861605;29;20053;-73
2022/08/07 05:28:59;;;;;;;0.52;0.52;;;13.40;69.70;;;;;;4861529;29;20049;-73
2022/08/07 05:31:32;;;;;;;0.43;0.40;;;13.40;69.70;;;;;;4861277;29;20078;-73
2022/08/07 05:33:59;;;;;;;1.02;0.60;;;13.40;69.70;;;;;;4844750;29;20057;-74
2022/08/07 05:36:26;;;;;;;0.60;0.47;;;13.50;69.70;;;;;;4861468;29;20053;-73
2022/08/07 05:38:53;;;;;;;0.52;0.52;;;13.40;69.50;;;;;;4844815;29;20046;-73
2022/08/07 05:41:21;;;;;;;0.60;0.50;;;13.60;69.60;;;;;;4845046;29;20093;-73
2022/08/07 05:43:50;;;;;;;0.95;0.57;;;13.50;69.40;;;;;;4860931;29;20034;-73
2022/08/07 05:46:19;;;;;;;0.40;0.40;;;13.60;69.40;;;;;;4844400;29;20552;-73
2022/08/07 05:48:45;;;;;;;0.50;0.47;;;13.70;69.50;;;;;;4844255;29;20087;-73
2022/08/07 05:51:13;;;;;;;0.60;0.55;;;13.80;69.50;;;;;;4844668;29;20073;-73
2022/08/07 05:53:39;;;;;;;0.70;0.60;;;13.80;69.30;;;;;;4860995;29;20034;-73
2022/08/07 05:56:06;;;;;;;0.68;0.50;;;13.90;69.30;;;;;;4845103;29;20046;-73
2022/08/07 05:58:35;;;;;;;1.02;0.70;;;14.00;69.20;;;;;;4860813;29;20045;-73
2022/08/07 06:01:01;;;;;;;0.63;0.52;;;14.10;69.10;;;;;;4860849;29;20395;-73
2022/08/07 06:03:29;;;;;;;0.65;0.50;;;14.10;69.10;;;;;;4860745;29;20068;-73
2022/08/07 06:05:56;;;;;;;0.50;0.50;;;14.10;69.00;;;;;;4861112;29;20029;-73
2022/08/07 06:08:22;;;;;;;0.82;0.60;;;14.20;69.80;;;;;;4860635;29;20474;-73
2022/08/07 06:10:49;;;;;;;0.68;0.60;;;14.20;69.10;;;;;;4860474;29;20049;-73
2022/08/07 06:13:15;;;;;;;0.70;0.70;;;14.30;69.00;;;;;;4860380;29;20117;-73
2022/08/07 06:15:42;;;;;;;0.60;0.50;;;14.40;68.90;;;;;;4843929;29;20132;-73
2022/08/07 06:18:10;;;;;;;0.88;0.70;;;14.40;68.70;;;;;;4844098;29;20465;-73
2022/08/07 06:20:36;;;;;;;0.77;0.70;;;14.50;68.60;;;;;;4860884;29;20045;-73
2022/08/07 06:23:04;;;;;;;1.23;0.80;;;14.60;68.60;;;;;;4844026;29;20464;-73
2022/08/07 06:25:30;;;;;;;1.00;0.60;;;14.60;68.60;;;;;;4843866;29;20069;-73
2022/08/07 06:28:02;;;;;;;0.50;0.50;;;14.60;68.60;;;;;;4861158;29;20050;-73
2022/08/07 06:30:28;;;;;;;0.95;0.70;;;14.70;68.60;;;;;;4860924;29;20057;-73
2022/08/07 06:32:53;;;;;;;1.13;0.85;;;14.80;68.50;;;;;;4860466;29;20041;-73
2022/08/07 06:35:19;;;;;;;0.57;0.50;;;14.90;68.50;;;;;;4860793;29;20037;-73
2022/08/07 06:37:45;;;;;;;0.57;0.57;;;14.90;68.50;;;;;;4860626;29;20101;-74
2022/08/07 06:40:11;;;;;;;0.93;0.60;;;14.90;68.40;;;;;;4860973;29;20055;-73
2022/08/07 06:42:40;;;;;;;0.70;0.60;;;15.00;68.40;;;;;;4860472;29;20038;-73
2022/08/07 06:45:10;;;;;;;0.75;0.65;;;15.00;68.40;;;;;;4842410;29;20041;-73
2022/08/07 06:47:36;;;;;;;0.57;0.55;;;15.10;68.40;;;;;;4860440;29;20052;-73
2022/08/07 06:50:03;;;;;;;0.68;0.60;;;15.10;68.40;;;;;;4859532;29;20049;-73
2022/08/07 06:52:32;;;;;;;0.57;0.57;;;15.20;68.30;;;;;;4859777;29;20401;-73
2022/08/07 06:54:59;;;;;;;0.70;0.50;;;15.30;68.30;;;;;;4860452;29;20042;-73
2022/08/07 06:57:25;;;;;;;0.95;0.70;;;15.30;68.10;;;;;;4860569;29;20041;-73
2022/08/07 06:59:53;;;;;;;0.68;0.68;;;15.50;68.00;;;;;;4843351;29;20041;-73
2022/08/07 07:02:20;;;;;;;0.80;0.80;;;15.60;67.90;;;;;;4860326;29;20045;-73
2022/08/07 07:04:47;;;;;;;0.75;0.60;;;15.70;67.70;;;;;;4859724;29;20105;-73
2022/08/07 07:07:13;;;;;;;0.60;0.50;;;15.80;67.60;;;;;;4860248;29;20045;-73
2022/08/07 07:09:48;;;;;;;1.10;0.70;;;15.80;67.40;;;;;;4843107;29;20050;-73
2022/08/07 07:12:22;;;;;;;0.50;0.50;;;15.90;68.00;;;;;;4859536;29;20045;-73
2022/08/07 07:15:12;;;;;;;0.55;0.52;;;16.00;67.30;;;;;;4843067;29;20060;-73
2022/08/07 07:17:53;;;;;;;0.80;0.60;;;16.00;67.30;;;;;;4859458;29;20041;-73
2022/08/07 07:20:23;;;;;;;0.52;0.50;;;16.10;67.20;;;;;;4859320;29;20531;-73
2022/08/07 07:22:49;;;;;;;1.20;0.70;;;16.20;67.10;;;;;;4859713;29;20513;-73
2022/08/07 07:25:18;;;;;;;0.60;0.60;;;16.20;67.00;;;;;;4842309;29;20046;-73
2022/08/07 07:27:51;;;;;;;0.65;0.55;;;16.30;66.90;;;;;;4859827;29;20037;-73
2022/08/07 07:30:20;;;;;;;0.98;0.73;;;16.50;66.80;;;;;;4859529;29;20046;-73
2022/08/07 07:32:47;;;;;;;0.55;0.55;;;16.60;66.50;;;;;;4843475;29;20505;-73
2022/08/07 07:35:14;;;;;;;0.60;0.60;;;16.80;66.30;;;;;;4859241;29;20040;-73
2022/08/07 07:37:42;;;;;;;0.90;0.70;;;16.90;66.10;;;;;;4859638;29;20076;-73
2022/08/07 07:40:15;;;;;;;0.85;0.70;;;17.00;65.80;;;;;;4859335;29;20048;-73
2022/08/07 07:42:42;;;;;;;0.50;0.50;;;17.20;65.70;;;;;;4859637;29;20098;-73
2022/08/07 07:45:11;;;;;;;0.63;0.50;;;17.30;65.50;;;;;;4858782;29;20624;-73
2022/08/07 07:47:41;;;;;;;0.93;0.70;;;17.40;65.30;;;;;;4859193;29;20045;-73
2022/08/07 07:50:08;;;;;;;0.60;0.50;;;17.50;65.10;;;;;;4858732;29;20033;-73
2022/08/07 07:52:36;;;;;;;0.88;0.80;;;17.70;65.00;;;;;;4859126;29;20041;-73
2022/08/07 07:55:04;;;;;;;1.00;0.70;;;17.80;64.80;;;;;;4858970;29;20485;-73
2022/08/07 07:57:32;;;;;;;0.60;0.57;;;17.90;64.70;;;;;;4858923;29;20037;-73
2022/08/07 08:00:00;;;;;;;0.85;0.60;;;18.10;64.40;;;;;;4842182;29;20116;-73
2022/08/07 08:02:29;;;;;;;0.80;0.70;;;18.30;64.10;;;;;;4859110;29;20935;-73
2022/08/07 08:04:55;;;;;;;0.57;0.55;;;18.50;63.80;;;;;;4858912;29;20144;-73
2022/08/07 08:07:23;;;;;;;0.68;0.55;;;18.70;63.60;;;;;;4859031;29;20057;-73
2022/08/07 08:09:52;;;;;;;1.00;0.73;;;18.90;63.40;;;;;;4840619;29;20050;-73
2022/08/07 08:12:19;;;;;;;0.73;0.60;;;19.00;62.90;;;;;;4842279;29;20493;-73
2022/08/07 08:14:44;;;;;;;0.47;0.43;;;19.30;62.80;;;;;;4858730;29;20048;-73
2022/08/07 08:17:12;;;;;;;0.82;0.60;;;19.40;62.50;;;;;;4858884;29;20042;-73
2022/08/07 08:19:40;;;;;;;0.93;0.70;;;19.60;62.40;;;;;;4858617;29;20513;-73
2022/08/07 08:27:30;;;;;;;0.73;0.52;;;20.20;61.90;;;;;;4843941;29;20105;-72
2022/08/07 08:30:10;;;;;;;0.60;0.60;;;20.40;61.70;;;;;;4858261;29;20062;-72
2022/08/07 08:32:43;;;;;;;0.40;0.40;;;20.60;61.40;;;;;;4840947;29;20041;-72
2022/08/07 08:35:13;;;;;;;0.47;0.40;;;20.80;61.20;;;;;;4858871;29;20041;-72
2022/08/07 08:37:42;;;;;;;0.60;0.60;;;21.00;61.00;;;;;;4841189;29;20065;-73
2022/08/07 08:40:13;;;;;;;0.73;0.60;;;21.20;60.80;;;;;;4858838;29;20133;-72
2022/08/07 08:42:47;;;;;;;0.50;0.50;;;21.40;60.50;;;;;;4858680;29;20042;-72
2022/08/07 08:45:21;;;;;;;0.63;0.60;;;21.50;60.20;;;;;;4858511;29;20046;-72
2022/08/07 08:48:24;;;;;;;0.50;0.50;;;21.70;60.20;;;;;;4842594;29;20057;-73
2022/08/07 08:50:59;;;;;;;0.50;0.50;;;21.70;60.10;;;;;;4858382;29;20111;-75
2022/08/07 08:53:52;;;;;;;0.88;0.63;;;21.70;60.10;;;;;;4858837;29;20072;-74
2022/08/07 08:56:26;;;;;;;0.50;0.50;;;21.90;60.10;;;;;;4858251;29;20117;-74
2022/08/07 08:59:03;;;;;;;0.40;0.40;;;21.90;60.00;;;;;;4858529;29;20050;-74
2022/08/07 09:01:52;;;;;;;0.73;0.65;;;22.00;60.00;;;;;;4841865;29;20052;-74
2022/08/07 09:04:45;;;;;;;0.70;0.50;;;22.00;60.00;;;;;;4858710;29;20046;-74
2022/08/07 09:07:21;;;;;;;1.17;0.70;;;22.00;60.00;;;;;;4857968;29;20069;-73
2022/08/07 09:10:00;;;;;;;0.45;0.45;;;22.10;59.90;;;;;;4858105;29;20065;-74
2022/08/07 09:12:39;;;;;;;0.52;0.52;;;22.30;59.70;;;;;;4858199;29;20041;-74
2022/08/07 09:15:29;;;;;;;0.80;0.70;;;22.40;59.30;;;;;;4844460;29;20045;-73
2022/08/07 09:18:18;;;;;;;0.65;0.52;;;22.70;58.90;;;;;;4848741;29;20034;-73
2022/08/07 09:21:00;;;;;;;0.60;0.60;;;22.80;58.60;;;;;;4861296;29;20039;-74
2022/08/07 09:23:55;;;;;;;0.60;0.60;;;23.00;58.30;;;;;;4861710;29;20041;-74
2022/08/07 09:26:36;;;;;;;0.63;0.60;;;23.10;58.10;;;;;;4849176;29;20048;-74
2022/08/07 09:29:18;;;;;;;0.65;0.50;;;23.10;58.10;;;;;;4860704;29;20061;-74
2022/08/07 09:32:08;;;;;;;0.60;0.60;;;23.20;58.10;;;;;;4861321;29;20045;-74
2022/08/07 09:34:57;;;;;;;0.50;0.47;;;23.20;57.80;;;;;;4831228;29;20457;-74
2022/08/07 09:37:53;;;;;;;0.52;0.52;;;23.40;57.70;;;;;;4859008;29;20823;-74
2022/08/07 09:40:28;;;;;;;0.73;0.73;;;23.40;57.30;;;;;;4860705;29;20057;-74
2022/08/07 09:43:17;;;;;;;0.68;0.68;;;23.50;57.50;;;;;;4845726;29;20057;-74
2022/08/07 09:45:57;;;;;;;0.60;0.60;;;23.50;56.80;;;;;;4861167;29;20049;-74
2022/08/07 09:48:40;;;;;;;0.30;0.30;;;23.40;57.10;;;;;;4861220;29;20045;-73
2022/08/07 09:51:25;;;;;;;0.40;0.40;;;23.40;57.20;;;;;;4844575;29;20054;-73
2022/08/07 09:53:59;;;;;;;0.30;0.30;;;23.50;57.80;;;;;;4860930;29;20049;-74
2022/08/07 09:56:49;;;;;;;0.52;0.50;;;23.50;57.20;;;;;;4860597;29;20112;-74
2022/08/07 09:59:48;;;;;;;0.40;0.40;;;23.60;57.00;;;;;;4860920;29;20488;-74
2022/08/07 10:02:41;;;;;;;0.45;0.43;;;23.80;56.80;;;;;;4860887;29;20052;-74
2022/08/07 10:05:34;;;;;;;0.50;0.40;;;23.80;56.40;;;;;;4843781;29;20045;-74
2022/08/07 10:08:39;;;;;;;0.35;0.35;;;23.90;56.90;;;;;;4860792;29;20124;-75
2022/08/07 10:11:13;;;;;;;0.40;0.40;;;23.90;56.10;;;;;;4860628;29;20124;-74
2022/08/07 10:13:54;;;;;;;0.40;0.40;;;24.00;56.10;;;;;;4860859;29;20485;-73
2022/08/07 10:16:37;;;;;;;0.55;0.52;;;24.10;55.80;;;;;;4843661;29;20061;-73
2022/08/07 10:19:40;;;;;;;0.50;0.40;;;24.40;55.60;;;;;;4843292;29;20176;-73
2022/08/07 10:22:44;;;;;;;0.40;0.40;;;24.40;55.40;;;;;;4860408;29;20041;-73
2022/08/07 10:25:29;;;;;;;0.30;0.30;;;24.40;55.20;;;;;;4844711;29;20045;-73
2022/08/07 10:28:18;;;;;;;0.40;0.40;;;24.50;55.00;;;;;;4860489;29;20110;-74
2022/08/07 10:31:12;;;;;;;0.40;0.40;;;24.60;55.00;;;;;;4860509;29;20079;-73
2022/08/07 10:34:00;;;;;;;0.22;0.22;;;24.50;55.10;;;;;;4860209;29;20045;-74
2022/08/07 10:36:43;;;;;;;0.30;0.30;;;24.60;55.10;;;;;;4860433;29;20058;-74
2022/08/07 10:39:28;;;;;;;0.95;0.50;;;24.60;54.90;;;;;;4860378;29;20077;-74
2022/08/07 10:42:05;;;;;;;0.35;0.30;;;24.60;54.80;;;;;;4859903;29;20049;-74
2022/08/07 10:44:54;;;;;;;0.30;0.30;;;24.50;54.80;;;;;;4860343;29;20049;-74
2022/08/07 10:47:43;;;;;;;0.60;0.57;;;24.60;54.80;;;;;;4859961;29;20125;-74
2022/08/07 10:50:19;;;;;;;0.50;0.50;;;24.60;54.60;;;;;;4843079;29;20444;-74
2022/08/07 10:52:54;;;;;;;0.52;0.52;;;24.60;54.50;;;;;;4828728;29;20105;-73
2022/08/07 10:55:28;;;;;;;0.50;0.50;;;24.50;54.40;;;;;;4858746;29;20405;-74
2022/08/07 10:58:24;;;;;;;1.90;0.50;;;24.50;54.50;;;;;;4860192;29;20045;-75
2022/08/07 11:01:06;;;;;;;0.65;0.63;;;24.60;54.20;;;;;;4859747;29;20033;-74
2022/08/07 11:03:40;;;;;;;0.70;0.50;;;24.60;54.10;;;;;;4859886;29;20083;-74
2022/08/07 11:06:27;;;;;;;0.55;0.55;;;24.70;53.80;;;;;;4859943;29;20044;-74
2022/08/07 11:09:03;;;;;;;0.50;0.50;;;24.70;53.40;;;;;;4859778;29;20042;-74
2022/08/07 11:11:36;;;;;;;0.40;0.40;;;24.80;53.30;;;;;;4859770;29;20037;-74
2022/08/07 11:14:12;;;;;;;0.47;0.47;;;24.90;53.20;;;;;;4859506;29;20065;-74
2022/08/07 11:16:58;;;;;;;1.17;0.98;;;25.00;52.90;;;;;;4859790;29;20037;-74
2022/08/07 11:19:42;;;;;;;0.95;0.70;;;25.00;52.40;;;;;;4859375;29;20049;-73
2022/08/07 11:22:26;;;;;;;0.77;0.75;;;24.90;52.70;;;;;;4844894;29;20049;-74
2022/08/07 11:25:04;;;;;;;0.65;0.65;;;24.90;52.50;;;;;;4857885;29;20049;-73
2022/08/07 11:27:55;;;;;;;0.60;0.60;;;24.90;52.30;;;;;;4842312;29;20412;-73
2022/08/07 11:30:27;;;;;;;0.60;0.60;;;25.00;52.40;;;;;;4843834;29;20045;-74
2022/08/07 11:33:05;;;;;;;0.70;0.60;;;25.10;52.20;;;;;;4858294;29;20038;-73
2022/08/07 11:35:45;;;;;;;1.17;0.70;;;25.20;51.90;;;;;;4858891;29;20476;-73
2022/08/07 11:38:20;;;;;;;0.50;0.50;;;25.10;51.80;;;;;;4858138;29;20045;-73
2022/08/07 11:40:58;;;;;;;0.60;0.60;;;25.20;51.80;;;;;;4858355;29;20045;-74
2022/08/07 11:43:29;;;;;;;0.50;0.50;;;25.20;51.70;;;;;;4858219;29;20068;-74
2022/08/07 11:46:27;;;;;;;0.60;0.60;;;25.30;51.70;;;;;;4857952;29;20046;-73
2022/08/07 11:49:28;;;;;;;0.65;0.50;;;25.30;51.60;;;;;;4858420;29;20072;-73
2022/08/07 11:52:22;;;;;;;0.70;0.70;;;25.30;51.40;;;;;;4859441;29;20042;-74
2022/08/07 11:55:20;;;;;;;0.60;0.60;;;25.20;51.30;;;;;;4859058;29;20037;-73
2022/08/07 11:57:54;;;;;;;0.77;0.70;;;25.20;51.30;;;;;;4859396;29;21044;-73
2022/08/07 12:00:35;;;;;;;1.00;0.70;;;25.20;51.40;;;;;;4859191;29;20045;-74
2022/08/07 12:03:36;;;;;;;0.60;0.60;;;25.20;51.30;;;;;;4826766;29;20042;-73
2022/08/07 12:06:38;;;;;;;0.73;0.60;;;25.30;51.30;;;;;;4846213;29;20117;-74
2022/08/07 12:09:21;;;;;;;0.57;0.57;;;25.30;51.20;;;;;;4858696;29;20481;-74
2022/08/07 12:12:11;;;;;;;0.60;0.60;;;25.40;51.20;;;;;;4859104;29;20098;-73
2022/08/07 12:14:50;;;;;;;2.25;0.88;;;25.50;50.80;;;;;;4858947;29;20046;-73
2022/08/07 12:17:20;;;;;;;0.85;0.85;;;25.50;50.80;;;;;;4858866;29;20046;-73
2022/08/07 12:20:04;;;;;;;0.60;0.60;;;25.40;50.90;;;;;;4842091;29;20056;-73
2022/08/07 12:22:45;;;;;;;0.77;0.77;;;25.30;50.90;;;;;;4858864;29;20067;-74
2022/08/07 12:25:55;;;;;;;0.70;0.70;;;25.20;51.10;;;;;;4859141;29;20049;-74
2022/08/07 12:28:16;;;;;;;1.60;0.80;;;25.20;51.20;;;;;;4858330;29;20424;-73
2022/08/07 12:30:44;;;;;;;0.40;0.40;;;25.20;51.20;;;;;;4842444;29;20054;-73
2022/08/07 12:33:17;;;;;;;0.47;0.47;;;25.20;51.20;;;;;;4859247;29;20045;-73
2022/08/07 12:35:45;;;;;;;0.60;0.60;;;25.30;51.20;;;;;;4842679;29;20049;-75
2022/08/07 12:38:13;;;;;;;0.63;0.63;;;25.40;51.10;;;;;;4858679;29;20029;-74
2022/08/07 12:40:41;;;;;;;0.90;0.75;;;25.30;51.00;;;;;;4858795;29;20042;-74
2022/08/07 12:43:09;;;;;;;0.95;0.63;;;25.30;51.00;;;;;;4858860;29;20041;-74
2022/08/07 12:46:03;;;;;;;0.90;0.70;;;25.20;51.00;;;;;;4858478;29;20060;-74
2022/08/07 12:48:40;;;;;;;0.80;0.80;;;25.20;50.90;;;;;;4857570;29;20033;-72
2022/08/07 12:51:14;;;;;;;0.77;0.77;;;25.10;51.00;;;;;;4861997;29;20049;-74
2022/08/07 12:53:49;;;;;;;0.50;0.50;;;25.10;51.00;;;;;;4845354;29;20053;-73
2022/08/07 12:56:35;;;;;;;0.73;0.70;;;25.00;51.10;;;;;;4862389;29;20037;-75
2022/08/07 12:59:03;;;;;;;1.05;0.70;;;25.00;51.10;;;;;;4859831;29;20026;-74
2022/08/07 13:01:55;;;;;;;0.60;0.60;;;25.00;51.20;;;;;;4845124;29;20094;-74
2022/08/07 13:04:55;;;;;;;0.85;0.77;;;25.00;51.00;;;;;;4860258;29;20094;-74
2022/08/07 13:07:41;;;;;;;1.08;0.80;;;25.00;51.00;;;;;;4859784;29;20045;-75
2022/08/07 13:10:30;;;;;;;1.35;0.80;;;25.10;50.90;;;;;;4844662;29;20053;-73
2022/08/07 13:13:27;;;;;;;0.60;0.60;;;25.10;50.70;;;;;;4846076;29;20053;-74
2022/08/07 13:16:00;;;;;;;0.45;0.45;;;25.10;50.60;;;;;;4848227;29;20042;-73
2022/08/07 13:18:42;;;;;;;0.60;0.60;;;25.00;50.60;;;;;;4860985;29;20890;-74
2022/08/07 13:21:22;;;;;;;0.60;0.60;;;24.90;50.60;;;;;;4829652;29;20098;-73
2022/08/07 13:23:54;;;;;;;0.55;0.52;;;24.90;50.80;;;;;;4859548;29;20045;-73